createdAt,value
2018-08-20T00:00:55.914Z,16.10
2018-08-20T00:03:25.108Z,16.10
2018-08-20T00:05:54.665Z,16.10
2018-08-20T00:08:24.496Z,16.10
2018-08-20T00:10:54.773Z,16.10
2018-08-20T00:13:23.483Z,16.20
2018-08-20T00:15:52.388Z,16.20
2018-08-20T00:18:26.144Z,16.20
2018-08-20T00:20:54.765Z,16.20
2018-08-20T00:23:23.848Z,16.20
2018-08-20T00:25:54.660Z,16.30
2018-08-20T00:28:23.084Z,16.30
2018-08-20T00:30:52.204Z,16.30
2018-08-20T00:33:20.624Z,16.30
2018-08-20T00:35:49.167Z,16.30
2018-08-20T00:38:17.591Z,16.30
2018-08-20T00:40:46.404Z,16.30
2018-08-20T00:43:14.985Z,16.30
2018-08-20T00:45:43.499Z,16.20
2018-08-20T00:48:12.033Z,16.20
2018-08-20T00:50:40.461Z,16.20
2018-08-20T00:53:09.636Z,16.10
2018-08-20T00:55:38.079Z,16.10
2018-08-20T00:58:06.631Z,16.00
2018-08-20T01:00:35.181Z,16.00
2018-08-20T01:03:04.075Z,15.90
2018-08-20T01:05:32.611Z,15.90
2018-08-20T01:08:01.090Z,15.90
2018-08-20T01:10:29.596Z,15.90
2018-08-20T01:12:58.080Z,15.90
2018-08-20T01:15:26.896Z,15.80
2018-08-20T01:17:55.336Z,15.80
2018-08-20T01:20:23.804Z,15.70
2018-08-20T01:22:52.265Z,15.70
2018-08-20T01:25:20.683Z,15.70
2018-08-20T01:27:49.707Z,15.70
2018-08-20T01:30:18.240Z,15.60
2018-08-20T01:32:46.693Z,15.60
2018-08-20T01:35:28.583Z,15.60
2018-08-20T01:37:57.041Z,15.60
2018-08-20T01:40:25.773Z,15.60
2018-08-20T01:42:54.244Z,15.60
2018-08-20T01:45:22.824Z,15.60
2018-08-20T01:47:51.324Z,15.60
2018-08-20T01:50:19.812Z,15.60
2018-08-20T01:52:48.275Z,15.60
2018-08-20T01:55:17.564Z,15.60
2018-08-20T01:57:46.036Z,15.60
2018-08-20T02:00:14.724Z,15.50
2018-08-20T02:02:45.003Z,15.50
2018-08-20T02:05:13.568Z,15.50
2018-08-20T02:07:42.029Z,15.40
2018-08-20T02:10:11.148Z,15.40
2018-08-20T02:12:41.342Z,15.40
2018-08-20T02:15:09.850Z,15.40
2018-08-20T02:17:38.412Z,15.40
2018-08-20T02:20:06.913Z,15.30
2018-08-20T02:22:35.359Z,15.30
2018-08-20T02:25:03.943Z,15.20
2018-08-20T02:27:32.430Z,15.30
2018-08-20T02:30:00.904Z,15.20
2018-08-20T02:32:29.406Z,15.20
2018-08-20T02:34:57.991Z,15.20
2018-08-20T02:37:31.274Z,15.10
2018-08-20T02:40:00.172Z,15.00
2018-08-20T02:42:28.674Z,15.00
2018-08-20T02:44:57.190Z,15.00
2018-08-20T02:47:25.656Z,14.90
2018-08-20T02:49:54.166Z,14.90
2018-08-20T02:52:22.652Z,14.90
2018-08-20T02:54:51.102Z,14.80
2018-08-20T02:57:19.536Z,14.80
2018-08-20T02:59:48.010Z,14.90
2018-08-20T03:02:16.497Z,14.90
2018-08-20T03:04:44.964Z,15.00
2018-08-20T03:07:13.425Z,14.90
2018-08-20T03:09:41.867Z,14.90
2018-08-20T03:12:10.400Z,14.90
2018-08-20T03:14:38.884Z,14.90
2018-08-20T03:17:07.332Z,15.00
2018-08-20T03:19:35.787Z,15.00
2018-08-20T03:22:04.416Z,15.00
2018-08-20T03:24:33.563Z,14.90
2018-08-20T03:27:02.130Z,14.90
2018-08-20T03:29:30.581Z,15.00
2018-08-20T03:31:59.036Z,14.90
2018-08-20T03:34:27.485Z,14.90
2018-08-20T03:36:55.888Z,14.90
2018-08-20T03:39:24.344Z,14.80
2018-08-20T03:41:52.814Z,14.80
2018-08-20T03:44:21.269Z,14.80
2018-08-20T03:46:49.767Z,14.70
2018-08-20T03:49:18.214Z,14.70
2018-08-20T03:51:46.746Z,14.70
2018-08-20T03:54:15.233Z,14.70
2018-08-20T03:56:43.709Z,14.80
2018-08-20T03:59:26.253Z,14.80
2018-08-20T04:01:54.685Z,14.80
2018-08-20T04:04:23.142Z,14.80
2018-08-20T04:06:51.676Z,14.90
2018-08-20T04:09:20.176Z,14.90
2018-08-20T04:11:48.604Z,15.00
2018-08-20T04:14:17.040Z,15.00
2018-08-20T04:16:45.556Z,15.10
2018-08-20T04:19:14.640Z,15.10
2018-08-20T04:21:43.108Z,15.10
2018-08-20T04:24:11.531Z,15.10
2018-08-20T04:26:40.004Z,15.10
2018-08-20T04:29:08.783Z,15.10
2018-08-20T04:31:37.264Z,15.00
2018-08-20T04:34:05.909Z,15.10
2018-08-20T04:36:34.480Z,15.10
2018-08-20T04:39:02.945Z,15.10
2018-08-20T04:41:31.386Z,15.00
2018-08-20T04:43:59.832Z,15.00
2018-08-20T04:46:28.293Z,15.00
2018-08-20T04:48:56.756Z,15.00
2018-08-20T04:51:25.212Z,15.00
2018-08-20T04:53:53.761Z,15.00
2018-08-20T04:56:22.380Z,15.00
2018-08-20T04:58:50.817Z,15.00
2018-08-20T05:01:19.290Z,15.10
2018-08-20T05:03:47.754Z,15.10
2018-08-20T05:06:16.363Z,15.20
2018-08-20T05:08:45.432Z,15.20
2018-08-20T05:11:13.872Z,15.20
2018-08-20T05:13:42.407Z,15.30
2018-08-20T05:16:10.873Z,15.40
2018-08-20T05:18:39.613Z,15.40
2018-08-20T05:21:08.680Z,15.50
2018-08-20T05:23:37.165Z,15.50
2018-08-20T05:26:05.900Z,15.50
2018-08-20T05:28:34.352Z,15.50
2018-08-20T05:31:02.837Z,15.50
2018-08-20T05:33:31.243Z,15.50
2018-08-20T05:35:59.649Z,15.50
2018-08-20T05:38:28.163Z,15.50
2018-08-20T05:40:56.622Z,15.60
2018-08-20T05:43:25.064Z,15.60
2018-08-20T05:45:53.641Z,15.70
2018-08-20T05:48:22.094Z,15.80
2018-08-20T05:50:50.540Z,15.80
2018-08-20T05:53:19.042Z,15.90
2018-08-20T05:55:48.449Z,16.10
2018-08-20T05:58:18.434Z,16.10
2018-08-20T06:00:47.031Z,16.20
2018-08-20T06:03:15.534Z,16.30
2018-08-20T06:05:44.153Z,16.40
2018-08-20T06:08:12.605Z,16.50
2018-08-20T06:10:41.052Z,16.60
2018-08-20T06:13:09.551Z,16.70
2018-08-20T06:15:38.192Z,16.90
2018-08-20T06:18:06.994Z,17.00
2018-08-20T06:20:35.436Z,17.30
2018-08-20T06:23:04.239Z,17.40
2018-08-20T06:25:33.371Z,17.60
2018-08-20T06:28:01.993Z,17.80
2018-08-20T06:30:30.561Z,17.90
2018-08-20T06:32:59.049Z,18.20
2018-08-20T06:35:27.612Z,18.40
2018-08-20T06:37:56.249Z,18.60
2018-08-20T06:40:24.771Z,18.80
2018-08-20T06:42:53.230Z,19.00
2018-08-20T06:45:22.309Z,19.30
2018-08-20T06:47:50.904Z,19.50
2018-08-20T06:50:20.124Z,19.80
2018-08-20T06:52:48.562Z,20.00
2018-08-20T06:55:17.144Z,20.30
2018-08-20T06:57:46.558Z,20.50
2018-08-20T07:00:15.373Z,20.80
2018-08-20T07:02:43.840Z,21.00
2018-08-20T07:05:12.505Z,21.20
2018-08-20T07:07:41.295Z,21.50
2018-08-20T07:10:12.665Z,21.50
2018-08-20T07:12:41.419Z,21.70
2018-08-20T07:15:11.817Z,22.00
2018-08-20T07:17:40.276Z,22.00
2018-08-20T07:20:10.619Z,22.30
2018-08-20T07:22:39.182Z,22.60
2018-08-20T07:25:09.060Z,22.40
2018-08-20T07:27:38.382Z,22.40
2018-08-20T07:30:09.896Z,22.70
2018-08-20T07:32:38.344Z,22.80
2018-08-20T07:35:07.164Z,23.10
2018-08-20T07:37:35.692Z,23.00
2018-08-20T07:40:05.893Z,23.20
2018-08-20T07:42:34.554Z,23.00
2018-08-20T07:45:03.031Z,23.20
2018-08-20T07:47:31.611Z,23.20
2018-08-20T07:50:00.495Z,23.30
2018-08-20T07:52:29.070Z,23.70
2018-08-20T07:54:58.280Z,23.20
2018-08-20T07:57:26.771Z,23.40
2018-08-20T07:59:55.248Z,23.50
2018-08-20T08:02:24.011Z,23.80
2018-08-20T08:04:52.615Z,24.10
2018-08-20T08:07:21.125Z,24.10
2018-08-20T08:09:49.556Z,24.40
2018-08-20T08:12:18.122Z,24.40
2018-08-20T08:14:46.623Z,24.30
2018-08-20T08:17:15.088Z,24.40
2018-08-20T08:19:43.705Z,24.20
2018-08-20T08:22:12.151Z,24.20
2018-08-20T08:24:40.669Z,24.40
2018-08-20T08:27:09.174Z,24.50
2018-08-20T08:29:37.702Z,24.90
2018-08-20T08:32:06.302Z,24.90
2018-08-20T08:34:34.845Z,25.10
2018-08-20T08:37:03.469Z,24.80
2018-08-20T08:39:32.010Z,25.00
2018-08-20T08:42:00.507Z,25.20
2018-08-20T08:44:29.017Z,25.30
2018-08-20T08:46:57.534Z,25.50
2018-08-20T08:49:26.141Z,25.90
2018-08-20T08:51:55.209Z,26.00
2018-08-20T08:54:23.683Z,26.30
2018-08-20T08:56:52.187Z,26.10
2018-08-20T08:59:20.657Z,25.90
2018-08-20T09:01:49.219Z,26.20
2018-08-20T09:04:17.760Z,26.30
2018-08-20T09:06:46.194Z,26.50
2018-08-20T09:09:15.637Z,26.40
2018-08-20T09:11:44.197Z,26.60
2018-08-20T09:14:12.676Z,26.50
2018-08-20T09:16:41.196Z,26.80
2018-08-20T09:19:09.646Z,27.00
2018-08-20T09:21:38.148Z,27.30
2018-08-20T09:24:06.681Z,27.50
2018-08-20T09:26:35.153Z,27.40
2018-08-20T09:29:03.786Z,27.60
2018-08-20T09:31:32.383Z,27.20
2018-08-20T09:34:00.854Z,27.40
2018-08-20T09:36:29.470Z,27.70
2018-08-20T09:38:57.901Z,27.60
2018-08-20T09:41:26.384Z,27.80
2018-08-20T09:43:54.877Z,28.20
2018-08-20T09:46:23.894Z,28.50
2018-08-20T09:48:52.344Z,28.60
2018-08-20T09:51:20.796Z,28.40
2018-08-20T09:53:49.261Z,28.20
2018-08-20T09:56:17.859Z,28.50
2018-08-20T09:58:46.316Z,28.60
2018-08-20T10:01:14.836Z,28.30
2018-08-20T10:03:45.708Z,28.40
2018-08-20T10:06:15.221Z,28.90
2018-08-20T10:08:43.930Z,29.00
2018-08-20T10:11:13.045Z,28.90
2018-08-20T10:13:41.493Z,28.90
2018-08-20T10:16:10.307Z,28.60
2018-08-20T10:18:39.608Z,28.60
2018-08-20T10:21:08.322Z,28.90
2018-08-20T10:23:36.780Z,29.20
2018-08-20T10:26:05.899Z,29.10
2018-08-20T10:28:34.480Z,29.20
2018-08-20T10:31:03.013Z,29.30
2018-08-20T10:33:31.615Z,29.20
2018-08-20T10:36:00.108Z,28.90
2018-08-20T10:38:28.594Z,29.50
2018-08-20T10:40:57.160Z,29.40
2018-08-20T10:43:25.570Z,29.50
2018-08-20T10:45:59.383Z,29.40
2018-08-20T10:48:27.837Z,29.20
2018-08-20T10:50:56.277Z,29.40
2018-08-20T10:53:25.177Z,29.50
2018-08-20T10:55:53.674Z,29.60
2018-08-20T10:58:22.320Z,29.60
2018-08-20T11:00:50.803Z,29.50
2018-08-20T11:03:19.298Z,29.20
2018-08-20T11:05:47.748Z,29.50
2018-08-20T11:08:16.193Z,29.50
2018-08-20T11:10:44.678Z,29.80
2018-08-20T11:13:13.314Z,29.90
2018-08-20T11:15:41.863Z,30.00
2018-08-20T11:18:10.732Z,29.90
2018-08-20T11:20:39.193Z,30.20
2018-08-20T11:23:07.652Z,30.30
2018-08-20T11:25:36.153Z,30.50
2018-08-20T11:28:04.866Z,30.40
2018-08-20T11:30:33.436Z,30.70
2018-08-20T11:33:02.008Z,30.40
2018-08-20T11:35:30.593Z,30.20
2018-08-20T11:37:59.179Z,30.20
2018-08-20T11:40:27.750Z,30.20
2018-08-20T11:42:56.270Z,30.00
2018-08-20T11:45:24.709Z,30.00
2018-08-20T11:47:53.193Z,30.00
2018-08-20T11:50:21.629Z,29.90
2018-08-20T11:52:50.167Z,30.10
2018-08-20T11:55:18.588Z,30.30
2018-08-20T11:57:47.048Z,30.40
2018-08-20T12:00:16.055Z,30.60
2018-08-20T12:02:44.461Z,30.50
2018-08-20T12:05:12.941Z,30.20
2018-08-20T12:07:41.497Z,30.30
2018-08-20T12:10:11.125Z,30.40
2018-08-20T12:12:40.190Z,30.20
2018-08-20T12:15:10.536Z,30.40
2018-08-20T12:17:39.392Z,30.20
2018-08-20T12:20:09.835Z,30.10
2018-08-20T12:22:39.368Z,30.50
2018-08-20T12:25:10.111Z,30.60
2018-08-20T12:27:39.062Z,30.60
2018-08-20T12:30:08.965Z,30.50
2018-08-20T12:32:37.416Z,30.80
2018-08-20T12:35:06.273Z,30.60
2018-08-20T12:37:34.811Z,30.50
2018-08-20T12:40:03.461Z,30.70
2018-08-20T12:42:31.908Z,30.80
2018-08-20T12:45:00.361Z,30.40
2018-08-20T12:47:28.915Z,30.50
2018-08-20T12:49:57.442Z,30.80
2018-08-20T12:52:25.888Z,30.80
2018-08-20T12:54:54.321Z,30.80
2018-08-20T12:57:22.797Z,31.00
2018-08-20T12:59:54.897Z,31.10
2018-08-20T13:02:23.361Z,31.20
2018-08-20T13:04:52.352Z,30.70
2018-08-20T13:07:20.916Z,30.90
2018-08-20T13:09:49.496Z,30.90
2018-08-20T13:12:17.936Z,31.30
2018-08-20T13:14:48.196Z,31.10
2018-08-20T13:17:17.312Z,30.50
2018-08-20T13:19:45.764Z,30.70
2018-08-20T13:22:14.260Z,30.80
2018-08-20T13:24:42.721Z,31.00
2018-08-20T13:27:11.204Z,31.00
2018-08-20T13:29:39.756Z,31.10
2018-08-20T13:32:08.314Z,30.50
2018-08-20T13:34:36.785Z,30.50
2018-08-20T13:37:05.581Z,30.90
2018-08-20T13:39:34.190Z,30.90
2018-08-20T13:42:02.704Z,31.10
2018-08-20T13:44:31.616Z,31.40
2018-08-20T13:47:00.173Z,31.30
2018-08-20T13:49:28.707Z,31.40
2018-08-20T13:51:57.164Z,31.20
2018-08-20T13:54:25.681Z,31.30
2018-08-20T13:56:54.206Z,31.70
2018-08-20T13:59:22.613Z,31.70
2018-08-20T14:01:51.115Z,31.20
2018-08-20T14:04:20.234Z,31.10
2018-08-20T14:06:48.785Z,31.20
2018-08-20T14:09:18.029Z,31.50
2018-08-20T14:11:46.593Z,31.50
2018-08-20T14:14:15.069Z,31.60
2018-08-20T14:16:44.105Z,31.40
2018-08-20T14:19:12.603Z,31.60
2018-08-20T14:21:41.076Z,31.60
2018-08-20T14:24:09.689Z,30.80
2018-08-20T14:26:38.168Z,30.50
2018-08-20T14:29:06.774Z,30.50
2018-08-20T14:31:35.584Z,30.50
2018-08-20T14:34:04.080Z,30.50
2018-08-20T14:36:32.644Z,30.50
2018-08-20T14:39:01.126Z,30.50
2018-08-20T14:41:29.625Z,30.20
2018-08-20T14:43:58.109Z,30.20
2018-08-20T14:46:26.555Z,29.80
2018-08-20T14:48:55.080Z,29.90
2018-08-20T14:51:23.733Z,30.00
2018-08-20T14:53:52.388Z,29.80
2018-08-20T14:56:20.875Z,29.70
2018-08-20T14:58:50.393Z,29.70
2018-08-20T15:01:19.827Z,29.60
2018-08-20T15:03:48.327Z,29.00
2018-08-20T15:06:16.863Z,29.30
2018-08-20T15:08:45.353Z,29.20
2018-08-20T15:11:13.873Z,29.10
2018-08-20T15:13:42.300Z,29.00
2018-08-20T15:16:10.778Z,29.00
2018-08-20T15:18:39.408Z,29.00
2018-08-20T15:21:07.881Z,29.00
2018-08-20T15:23:36.449Z,29.00
2018-08-20T15:26:05.256Z,28.80
2018-08-20T15:28:33.795Z,28.80
2018-08-20T15:31:02.288Z,28.60
2018-08-20T15:33:30.989Z,28.40
2018-08-20T15:35:59.557Z,28.40
2018-08-20T15:38:28.023Z,28.10
2018-08-20T15:40:56.621Z,28.00
2018-08-20T15:43:25.208Z,27.90
2018-08-20T15:45:53.773Z,27.70
2018-08-20T15:48:22.225Z,27.60
2018-08-20T15:50:50.784Z,27.50
2018-08-20T15:53:19.322Z,27.30
2018-08-20T15:55:48.057Z,27.20
2018-08-20T15:58:16.587Z,27.10
2018-08-20T16:00:45.060Z,27.10
2018-08-20T16:03:13.512Z,27.00
2018-08-20T16:05:42.056Z,27.00
2018-08-20T16:08:10.578Z,26.90
2018-08-20T16:10:39.060Z,26.80
2018-08-20T16:13:09.495Z,26.60
2018-08-20T16:15:38.161Z,26.70
2018-08-20T16:18:06.709Z,26.60
2018-08-20T16:20:35.333Z,26.50
2018-08-20T16:23:03.888Z,26.40
2018-08-20T16:25:32.395Z,26.30
2018-08-20T16:28:00.900Z,26.20
2018-08-20T16:30:29.429Z,26.30
2018-08-20T16:32:57.952Z,26.20
2018-08-20T16:35:26.512Z,26.10
2018-08-20T16:37:55.016Z,26.20
2018-08-20T16:40:24.416Z,26.00
2018-08-20T16:42:52.913Z,26.00
2018-08-20T16:45:21.592Z,26.00
2018-08-20T16:47:49.989Z,25.90
2018-08-20T16:50:18.468Z,25.80
2018-08-20T16:52:47.022Z,25.70
2018-08-20T16:55:15.534Z,25.60
2018-08-20T16:57:44.030Z,25.60
2018-08-20T17:13:17.073Z,25.50
2018-08-20T17:15:45.557Z,25.50
2018-08-20T17:18:14.012Z,25.00
2018-08-20T17:20:43.299Z,24.90
2018-08-20T17:23:18.600Z,24.70
2018-08-20T17:25:47.276Z,24.80
2018-08-20T17:28:20.441Z,24.70
2018-08-20T17:30:52.310Z,24.60
2018-08-20T17:33:20.889Z,24.60
2018-08-20T17:35:49.981Z,24.50
2018-08-20T17:38:18.496Z,24.40
2018-08-20T17:40:47.028Z,24.30
2018-08-20T17:43:15.620Z,24.20
2018-08-20T17:45:44.251Z,24.10
2018-08-20T17:48:19.389Z,23.90
2018-08-20T17:50:48.036Z,23.90
2018-08-20T17:53:16.548Z,23.80
2018-08-20T17:55:45.081Z,23.70
2018-08-20T17:58:13.664Z,23.60
2018-08-20T18:00:47.505Z,23.60
2018-08-20T18:03:32.989Z,23.60
2018-08-20T18:06:03.584Z,23.40
2018-08-20T18:08:33.861Z,23.30
2018-08-20T18:11:02.634Z,23.20
2018-08-20T18:13:40.193Z,23.10
2018-08-20T18:16:09.909Z,23.00
2018-08-20T18:18:39.461Z,22.80
2018-08-20T18:21:08.168Z,22.70
2018-08-20T18:23:37.251Z,22.60
2018-08-20T18:26:05.809Z,22.60
2018-08-20T18:28:48.757Z,22.40
2018-08-20T18:31:25.694Z,22.30
2018-08-20T18:33:54.304Z,22.20
2018-08-20T18:36:24.528Z,22.10
2018-08-20T18:38:54.882Z,21.90
2018-08-20T18:41:32.404Z,21.80
2018-08-20T18:44:00.897Z,21.70
2018-08-20T18:46:29.505Z,21.60
2018-08-20T18:48:58.000Z,21.50
2018-08-20T18:51:26.613Z,21.40
2018-08-20T18:53:55.749Z,21.30
2018-08-20T18:56:24.334Z,21.20
2018-08-20T18:58:52.876Z,21.10
2018-08-20T19:01:21.427Z,21.00
2018-08-20T19:03:50.517Z,21.00
2018-08-20T19:06:19.164Z,20.90
2018-08-20T19:08:47.676Z,20.80
2018-08-20T19:11:16.285Z,20.80
2018-08-20T19:13:44.840Z,20.70
2018-08-20T19:16:35.276Z,20.60
2018-08-20T19:19:04.068Z,20.60
2018-08-20T19:21:36.250Z,20.50
2018-08-20T19:24:04.944Z,20.50
2018-08-20T19:26:34.111Z,20.40
2018-08-20T19:29:23.958Z,20.40
2018-08-20T19:31:52.789Z,20.40
2018-08-20T19:34:21.269Z,20.40
2018-08-20T19:36:49.969Z,20.30
2018-08-20T19:39:18.685Z,20.20
2018-08-20T19:41:47.181Z,20.20
2018-08-20T19:44:15.648Z,20.20
2018-08-20T19:46:44.156Z,20.20
2018-08-20T19:49:14.374Z,20.20
2018-08-20T19:51:44.424Z,20.20
2018-08-20T19:54:14.778Z,20.10
2018-08-20T19:56:43.405Z,20.00
2018-08-20T19:59:12.428Z,20.00
2018-08-20T20:01:41.089Z,19.90
2018-08-20T20:04:15.404Z,19.90
2018-08-20T20:06:44.627Z,19.90
2018-08-20T20:09:13.105Z,19.90
2018-08-20T20:11:43.152Z,19.90
2018-08-20T20:14:11.646Z,19.90
2018-08-20T20:16:45.473Z,19.90
2018-08-20T20:19:14.074Z,19.90
2018-08-20T20:21:42.674Z,19.80
2018-08-20T20:24:12.017Z,19.70
2018-08-20T20:26:40.767Z,19.60
2018-08-20T20:29:10.668Z,19.50
2018-08-20T20:31:40.405Z,19.40
2018-08-20T20:34:09.115Z,19.40
2018-08-20T20:36:37.664Z,19.30
2018-08-20T20:39:08.634Z,19.10
2018-08-20T20:41:37.077Z,19.10
2018-08-20T20:44:06.069Z,19.00
2018-08-20T20:46:34.611Z,18.90
2018-08-20T20:49:03.047Z,18.80
2018-08-20T20:51:31.495Z,18.70
2018-08-20T20:54:00.092Z,18.70
2018-08-20T20:56:28.815Z,18.60
2018-08-20T20:58:57.410Z,18.50
2018-08-20T21:01:25.858Z,18.50
2018-08-20T21:03:54.431Z,18.50
2018-08-20T21:06:23.036Z,18.40
2018-08-20T21:08:52.076Z,18.30
2018-08-20T21:11:21.775Z,18.20
2018-08-20T21:13:50.233Z,18.20
2018-08-20T21:16:24.396Z,18.00
2018-08-20T21:18:54.165Z,17.90
2018-08-20T21:21:23.573Z,17.90
2018-08-20T21:23:52.097Z,17.90
2018-08-20T21:26:21.198Z,17.90
2018-08-20T21:28:50.969Z,17.90
2018-08-20T21:31:21.069Z,17.90
2018-08-20T21:33:55.075Z,17.80
2018-08-20T21:36:23.577Z,17.80
2018-08-20T21:38:52.076Z,17.70
2018-08-20T21:41:26.375Z,17.60
2018-08-20T21:43:55.174Z,17.60
2018-08-20T21:46:23.662Z,17.50
2018-08-20T21:48:52.123Z,17.50
2018-08-20T21:51:22.782Z,17.40
2018-08-20T21:53:51.216Z,17.40
2018-08-20T21:56:19.721Z,17.20
2018-08-20T21:58:48.244Z,17.20
2018-08-20T22:01:17.453Z,17.10
2018-08-20T22:03:46.393Z,17.10
2018-08-20T22:06:15.172Z,17.10
2018-08-20T22:08:43.686Z,17.10
2018-08-20T22:11:12.649Z,17.10
2018-08-20T22:13:41.159Z,17.00
2018-08-20T22:16:19.434Z,17.00
2018-08-20T22:18:54.845Z,16.90
2018-08-20T22:21:23.542Z,16.90
2018-08-20T22:23:54.728Z,16.80
2018-08-20T22:26:23.200Z,16.80
2018-08-20T22:28:52.200Z,16.80
2018-08-20T22:31:21.299Z,16.70
2018-08-20T22:33:57.229Z,16.70
2018-08-20T22:36:26.654Z,16.70
2018-08-20T22:38:59.230Z,16.60
2018-08-20T22:41:28.894Z,16.60
2018-08-20T22:43:57.445Z,16.50
2018-08-20T22:46:26.328Z,16.40
2018-08-20T22:48:57.051Z,16.30
2018-08-20T22:51:26.648Z,16.30
2018-08-20T22:53:57.771Z,16.20
2018-08-20T22:56:34.375Z,16.30
2018-08-20T22:59:06.648Z,16.30
2018-08-20T23:01:35.421Z,16.30
2018-08-20T23:04:04.428Z,16.40
2018-08-20T23:06:32.904Z,16.30
2018-08-20T23:09:18.048Z,16.30
2018-08-20T23:11:46.601Z,16.30
2018-08-20T23:14:15.149Z,16.30
2018-08-20T23:16:43.749Z,16.30
2018-08-20T23:19:12.256Z,16.30
2018-08-20T23:21:42.940Z,16.30
2018-08-20T23:24:12.536Z,16.20
2018-08-20T23:26:41.207Z,16.10
2018-08-20T23:29:10.425Z,16.10
2018-08-20T23:31:39.240Z,16.00
2018-08-20T23:34:08.612Z,15.90
2018-08-20T23:36:37.505Z,15.90
2018-08-20T23:39:07.996Z,15.90
2018-08-20T23:41:36.732Z,15.90
2018-08-20T23:44:05.327Z,15.90
2018-08-20T23:46:46.358Z,15.80
2018-08-20T23:49:14.906Z,15.80
2018-08-20T23:51:43.547Z,15.80
2018-08-20T23:54:12.581Z,15.70
2018-08-20T23:56:41.097Z,15.60
2018-08-20T23:59:09.738Z,15.60
